createdAt,value
2018-03-18T00:00:07.939Z,101174.11
2018-03-18T00:02:39.822Z,101174.72
2018-03-18T00:05:08.211Z,101182.68
2018-03-18T00:07:36.550Z,101175.97
2018-03-18T00:10:04.872Z,101179.83
2018-03-18T00:12:33.196Z,101180.34
2018-03-18T00:15:02.068Z,101177.06
2018-03-18T00:17:30.400Z,101183.88
2018-03-18T00:19:59.480Z,101171.69
2018-03-18T00:22:27.808Z,101184.61
2018-03-18T00:24:56.141Z,101174.45
2018-03-18T00:27:24.447Z,101182.18
2018-03-18T00:29:52.765Z,101172.49
2018-03-18T00:32:21.088Z,101184.78
2018-03-18T00:34:49.420Z,101184.30
2018-03-18T00:37:17.881Z,101197.42
2018-03-18T00:39:46.212Z,101186.75
2018-03-18T00:42:14.556Z,101188.80
2018-03-18T00:44:42.874Z,101192.65
2018-03-18T00:47:11.241Z,101200.14
2018-03-18T00:49:39.520Z,101186.30
2018-03-18T00:52:07.835Z,101195.69
2018-03-18T00:54:36.915Z,101193.66
2018-03-18T00:57:05.262Z,101194.72
2018-03-18T00:59:33.584Z,101208.63
2018-03-18T01:02:01.893Z,101189.43
2018-03-18T01:04:30.916Z,101192.52
2018-03-18T01:06:59.215Z,101180.52
2018-03-18T01:09:27.512Z,101189.63
2018-03-18T01:11:55.825Z,101181.80
2018-03-18T01:14:24.972Z,101195.30
2018-03-18T01:16:54.115Z,101191.87
2018-03-18T01:19:23.191Z,101191.13
2018-03-18T01:21:51.500Z,101195.75
2018-03-18T01:24:20.595Z,101194.38
2018-03-18T01:26:49.742Z,101197.84
2018-03-18T01:29:18.051Z,101196.33
2018-03-18T01:31:46.357Z,101193.95
2018-03-18T01:34:15.537Z,101203.70
2018-03-18T01:36:43.844Z,101191.77
2018-03-18T01:39:12.178Z,101191.28
2018-03-18T01:41:40.480Z,101188.91
2018-03-18T01:44:08.802Z,101187.47
2018-03-18T01:46:37.112Z,101182.63
2018-03-18T01:49:05.425Z,101197.37
2018-03-18T01:51:34.320Z,101184.36
2018-03-18T01:54:03.404Z,101178.17
2018-03-18T01:56:31.741Z,101199.86
2018-03-18T01:59:00.052Z,101195.27
2018-03-18T02:01:28.359Z,101197.22
2018-03-18T02:03:56.669Z,101192.28
2018-03-18T02:06:24.976Z,101195.47
2018-03-18T02:08:53.281Z,101187.09
2018-03-18T02:11:21.602Z,101190.97
2018-03-18T02:13:50.788Z,101185.91
2018-03-18T02:16:19.874Z,101194.03
2018-03-18T02:18:49.020Z,101206.64
2018-03-18T02:21:17.338Z,101197.45
2018-03-18T02:23:45.664Z,101207.83
2018-03-18T02:26:13.995Z,101201.73
2018-03-18T02:28:42.338Z,101195.16
2018-03-18T02:31:10.659Z,101196.41
2018-03-18T02:33:38.991Z,101195.41
2018-03-18T02:36:07.310Z,101206.65
2018-03-18T02:38:35.636Z,101205.70
2018-03-18T02:41:03.990Z,101196.61
2018-03-18T02:43:33.145Z,101195.30
2018-03-18T02:46:01.490Z,101199.26
2018-03-18T02:48:29.817Z,101193.59
2018-03-18T02:50:58.152Z,101190.91
2018-03-18T02:53:26.500Z,101184.86
2018-03-18T02:55:54.816Z,101184.26
2018-03-18T02:58:23.137Z,101189.80
2018-03-18T03:00:51.452Z,101192.51
2018-03-18T03:03:19.795Z,101192.63
2018-03-18T03:05:48.110Z,101182.02
2018-03-18T03:08:16.423Z,101172.23
2018-03-18T03:10:44.755Z,101187.19
2018-03-18T03:13:13.078Z,101184.21
2018-03-18T03:15:41.467Z,101198.23
2018-03-18T03:18:09.790Z,101190.01
2018-03-18T03:20:38.122Z,101196.31
2018-03-18T03:23:06.455Z,101189.23
2018-03-18T03:25:34.768Z,101187.02
2018-03-18T03:28:03.106Z,101192.74
2018-03-18T03:30:32.209Z,101182.73
2018-03-18T03:33:00.540Z,101194.23
2018-03-18T03:35:28.872Z,101192.73
2018-03-18T03:37:57.232Z,101190.02
2018-03-18T03:40:25.558Z,101188.74
2018-03-18T03:42:53.876Z,101195.06
2018-03-18T03:45:22.186Z,101190.77
2018-03-18T03:47:50.526Z,101197.98
2018-03-18T03:50:18.858Z,101202.56
2018-03-18T03:52:47.202Z,101197.73
2018-03-18T03:55:15.547Z,101193.33
2018-03-18T03:57:43.873Z,101200.59
2018-03-18T04:00:12.258Z,101204.67
2018-03-18T04:02:40.574Z,101208.92
2018-03-18T04:05:08.938Z,101196.24
2018-03-18T04:07:37.274Z,101204.47
2018-03-18T04:10:05.606Z,101211.02
2018-03-18T04:12:33.938Z,101207.50
2018-03-18T04:15:02.262Z,101212.05
2018-03-18T04:17:30.585Z,101213.69
2018-03-18T04:19:59.707Z,101207.92
2018-03-18T04:22:28.058Z,101210.84
2018-03-18T04:24:57.166Z,101219.42
2018-03-18T04:27:26.278Z,101196.56
2018-03-18T04:29:54.640Z,101214.73
2018-03-18T04:32:23.722Z,101212.64
2018-03-18T04:34:52.057Z,101218.06
2018-03-18T04:37:20.387Z,101221.27
2018-03-18T04:39:49.464Z,101221.88
2018-03-18T04:42:17.865Z,101217.81
2018-03-18T04:44:46.191Z,101220.19
2018-03-18T04:47:14.520Z,101215.67
2018-03-18T04:49:42.856Z,101221.38
2018-03-18T04:52:11.190Z,101215.61
2018-03-18T04:54:39.510Z,101232.17
2018-03-18T04:57:07.839Z,101225.33
2018-03-18T04:59:36.172Z,101229.14
2018-03-18T05:02:04.492Z,101220.33
2018-03-18T05:04:32.854Z,101222.27
2018-03-18T05:07:01.191Z,101228.17
2018-03-18T05:09:30.283Z,101230.81
2018-03-18T05:11:59.498Z,101232.73
2018-03-18T05:14:27.826Z,101234.66
2018-03-18T05:16:56.170Z,101228.17
2018-03-18T05:19:24.560Z,101223.95
2018-03-18T05:21:52.888Z,101245.41
2018-03-18T05:24:21.216Z,101222.38
2018-03-18T05:26:49.554Z,101236.53
2018-03-18T05:29:17.884Z,101234.86
2018-03-18T05:31:46.218Z,101240.87
2018-03-18T05:34:15.310Z,101238.05
2018-03-18T05:36:43.640Z,101237.36
2018-03-18T05:39:11.952Z,101235.88
2018-03-18T05:41:40.286Z,101249.91
2018-03-18T05:44:08.630Z,101255.30
2018-03-18T05:46:36.956Z,101242.91
2018-03-18T05:49:05.326Z,101235.28
2018-03-18T05:51:33.648Z,101254.31
2018-03-18T05:54:01.980Z,101264.17
2018-03-18T05:56:30.311Z,101272.91
2018-03-18T05:58:58.640Z,101269.05
2018-03-18T06:01:27.724Z,101265.78
2018-03-18T06:03:56.844Z,101273.38
2018-03-18T06:06:25.168Z,101276.48
2018-03-18T06:08:54.390Z,101280.43
2018-03-18T06:11:22.724Z,101271.70
2018-03-18T06:13:51.155Z,101269.91
2018-03-18T06:16:19.476Z,101272.03
2018-03-18T06:18:47.816Z,101290.77
2018-03-18T06:21:16.150Z,101283.28
2018-03-18T06:23:44.502Z,101282.38
2018-03-18T06:26:13.619Z,101286.22
2018-03-18T06:28:41.928Z,101279.86
2018-03-18T06:31:10.264Z,101289.76
2018-03-18T06:33:39.376Z,101283.33
2018-03-18T06:36:07.726Z,101282.15
2018-03-18T06:38:36.816Z,101275.32
2018-03-18T06:41:05.148Z,101276.93
2018-03-18T06:43:33.458Z,101289.59
2018-03-18T06:46:02.540Z,101297.80
2018-03-18T06:48:30.876Z,101296.24
2018-03-18T06:50:59.962Z,101299.98
2018-03-18T06:53:29.048Z,101307.49
2018-03-18T06:55:57.374Z,101302.14
2018-03-18T06:58:26.228Z,101295.54
2018-03-18T07:00:54.542Z,101308.60
2018-03-18T07:03:22.857Z,101305.97
2018-03-18T07:05:51.192Z,101314.66
2018-03-18T07:08:19.521Z,101322.06
2018-03-18T07:10:47.857Z,101315.25
2018-03-18T07:13:16.203Z,101314.23
2018-03-18T07:15:44.817Z,101319.73
2018-03-18T07:18:14.011Z,101326.48
2018-03-18T07:20:43.078Z,101328.64
2018-03-18T07:23:11.393Z,101321.16
2018-03-18T07:25:40.525Z,101321.85
2018-03-18T07:28:08.844Z,101323.16
2018-03-18T07:30:37.194Z,101329.96
2018-03-18T07:33:05.545Z,101330.40
2018-03-18T07:35:33.854Z,101332.47
2018-03-18T07:38:02.229Z,101339.88
2018-03-18T07:40:30.547Z,101345.62
2018-03-18T07:42:58.859Z,101338.05
2018-03-18T07:45:27.935Z,101339.83
2018-03-18T07:47:57.020Z,101346.11
2018-03-18T07:50:25.327Z,101341.14
2018-03-18T07:52:54.407Z,101347.14
2018-03-18T07:55:22.741Z,101347.83
2018-03-18T07:57:51.063Z,101351.95
2018-03-18T08:00:19.524Z,101336.74
2018-03-18T08:02:47.933Z,101341.61
2018-03-18T08:05:16.263Z,101345.22
2018-03-18T08:07:45.679Z,101338.53
2018-03-18T08:10:14.066Z,101354.69
2018-03-18T08:12:42.475Z,101350.98
2018-03-18T08:15:11.277Z,101353.55
2018-03-18T08:17:40.363Z,101347.73
2018-03-18T08:20:08.689Z,101342.70
2018-03-18T08:22:37.021Z,101353.62
2018-03-18T08:25:05.333Z,101347.70
2018-03-18T08:27:34.449Z,101355.00
2018-03-18T08:30:03.587Z,101347.39
2018-03-18T08:32:31.901Z,101346.66
2018-03-18T08:35:00.979Z,101344.48
2018-03-18T08:37:29.304Z,101347.76
2018-03-18T08:39:57.641Z,101350.12
2018-03-18T08:42:29.783Z,101338.73
2018-03-18T08:44:58.079Z,101340.47
2018-03-18T08:47:26.399Z,101331.83
2018-03-18T08:49:54.728Z,101342.40
2018-03-18T08:52:23.129Z,101325.98
2018-03-18T08:54:51.375Z,101330.12
2018-03-18T08:57:19.696Z,101342.31
2018-03-18T08:59:48.021Z,101335.92
2018-03-18T09:02:16.355Z,101340.16
2018-03-18T09:04:44.665Z,101337.37
2018-03-18T09:07:13.745Z,101346.63
2018-03-18T09:09:42.851Z,101340.55
2018-03-18T09:12:11.171Z,101334.38
2018-03-18T09:14:39.515Z,101330.95
2018-03-18T09:17:08.587Z,101329.06
2018-03-18T09:19:36.897Z,101338.00
2018-03-18T09:22:05.969Z,101337.30
2018-03-18T09:24:34.306Z,101333.29
2018-03-18T09:27:02.619Z,101342.14
2018-03-18T09:29:30.932Z,101336.71
2018-03-18T09:32:00.119Z,101323.41
2018-03-18T09:34:28.444Z,101336.79
2018-03-18T09:36:56.772Z,101343.06
2018-03-18T09:39:25.157Z,101330.31
2018-03-18T09:41:53.476Z,101324.20
2018-03-18T09:44:21.779Z,101339.80
2018-03-18T09:46:50.110Z,101331.92
2018-03-18T09:49:19.194Z,101323.68
2018-03-18T09:51:48.298Z,101331.72
2018-03-18T09:54:16.596Z,101333.12
2018-03-18T09:56:45.704Z,101325.17
2018-03-18T09:59:14.767Z,101335.61
2018-03-18T10:01:43.116Z,101335.63
2018-03-18T10:04:11.413Z,101325.02
2018-03-18T10:06:39.718Z,101330.63
2018-03-18T10:09:08.047Z,101342.17
2018-03-18T10:11:36.402Z,101349.30
2018-03-18T10:14:04.812Z,101342.09
2018-03-18T10:16:33.186Z,101331.56
2018-03-18T10:19:01.510Z,101342.42
2018-03-18T10:21:29.824Z,101331.05
2018-03-18T10:23:58.888Z,101332.20
2018-03-18T10:26:27.210Z,101337.52
2018-03-18T10:28:55.542Z,101335.03
2018-03-18T10:31:23.868Z,101335.61
2018-03-18T10:33:52.178Z,101346.42
2018-03-18T10:36:20.485Z,101331.46
2018-03-18T10:38:48.802Z,101333.59
2018-03-18T10:41:18.438Z,101326.30
2018-03-18T10:43:46.888Z,101323.86
2018-03-18T10:46:15.962Z,101329.70
2018-03-18T10:48:44.356Z,101333.33
2018-03-18T10:51:12.654Z,101333.24
2018-03-18T10:53:41.754Z,101321.20
2018-03-18T10:56:10.855Z,101316.44
2018-03-18T10:58:39.218Z,101337.94
2018-03-18T11:01:10.787Z,101330.30
2018-03-18T11:03:39.862Z,101326.19
2018-03-18T11:06:08.191Z,101327.50
2018-03-18T11:08:36.520Z,101323.22
2018-03-18T11:11:04.824Z,101328.90
2018-03-18T11:13:33.918Z,101320.82
2018-03-18T11:16:03.052Z,101316.36
2018-03-18T11:18:32.095Z,101313.93
2018-03-18T11:21:00.405Z,101311.30
2018-03-18T11:23:28.755Z,101322.58
2018-03-18T11:25:57.088Z,101318.52
2018-03-18T11:28:25.441Z,101302.95
2018-03-18T11:30:54.547Z,101309.93
2018-03-18T11:33:22.882Z,101306.81
2018-03-18T11:35:51.984Z,101303.73
2018-03-18T11:38:20.300Z,101304.63
2018-03-18T11:40:48.716Z,101295.80
2018-03-18T11:43:17.044Z,101305.94
2018-03-18T11:45:45.393Z,101308.56
2018-03-18T11:48:13.726Z,101292.55
2018-03-18T11:50:42.063Z,101302.36
2018-03-18T11:53:10.403Z,101302.69
2018-03-18T11:55:38.708Z,101302.84
2018-03-18T11:58:07.058Z,101304.55
2018-03-18T12:00:35.430Z,101303.38
2018-03-18T12:03:04.591Z,101309.23
2018-03-18T12:05:32.911Z,101301.93
2018-03-18T12:08:02.006Z,101307.03
2018-03-18T12:10:31.095Z,101306.10
2018-03-18T12:13:00.256Z,101290.69
2018-03-18T12:15:28.583Z,101294.96
2018-03-18T12:17:57.665Z,101293.14
2018-03-18T12:20:26.001Z,101295.73
2018-03-18T12:22:54.349Z,101288.86
2018-03-18T12:25:23.504Z,101286.53
2018-03-18T12:27:51.821Z,101285.67
2018-03-18T12:30:20.930Z,101286.58
2018-03-18T12:32:50.097Z,101282.15
2018-03-18T12:35:18.535Z,101289.84
2018-03-18T12:37:47.963Z,101288.15
2018-03-18T12:40:35.007Z,101282.76
2018-03-18T12:43:21.063Z,101277.61
2018-03-18T12:45:50.201Z,101277.03
2018-03-18T12:48:19.326Z,101274.92
2018-03-18T12:50:47.655Z,101264.23
2018-03-18T12:53:16.004Z,101270.87
2018-03-18T12:55:44.333Z,101258.44
2018-03-18T12:58:12.667Z,101258.88
2018-03-18T13:00:41.002Z,101268.75
2018-03-18T13:03:10.157Z,101258.66
2018-03-18T13:05:38.527Z,101249.27
2018-03-18T13:08:06.854Z,101251.32
2018-03-18T13:10:35.189Z,101249.62
2018-03-18T13:13:03.535Z,101250.98
2018-03-18T13:15:32.625Z,101248.42
2018-03-18T13:18:01.002Z,101247.19
2018-03-18T13:20:30.109Z,101250.00
2018-03-18T13:22:59.382Z,101250.20
2018-03-18T13:25:27.757Z,101249.71
2018-03-18T13:27:56.091Z,101237.33
2018-03-18T13:30:24.787Z,101242.52
2018-03-18T13:32:53.131Z,101239.44
2018-03-18T13:35:22.274Z,101242.03
2018-03-18T13:37:50.846Z,101232.80
2018-03-18T13:40:20.111Z,101232.58
2018-03-18T13:42:50.585Z,101241.43
2018-03-18T13:45:19.935Z,101235.93
2018-03-18T13:47:49.535Z,101232.10
2018-03-18T13:50:17.844Z,101235.77
2018-03-18T13:52:49.237Z,101242.59
2018-03-18T13:55:17.828Z,101234.00
2018-03-18T13:57:51.400Z,101224.14
2018-03-18T14:00:24.684Z,101216.16
2018-03-18T14:02:53.787Z,101215.78
2018-03-18T14:05:22.268Z,101220.24
2018-03-18T14:07:53.423Z,101219.64
2018-03-18T14:10:22.462Z,101234.28
2018-03-18T14:12:51.468Z,101223.25
2018-03-18T14:15:21.775Z,101209.48
2018-03-18T14:17:50.987Z,101227.36
2018-03-18T14:20:20.532Z,101213.94
2018-03-18T14:22:50.127Z,101215.91
2018-03-18T14:25:20.045Z,101221.20
2018-03-18T14:27:48.436Z,101216.56
2018-03-18T14:30:20.384Z,101219.84
2018-03-18T14:32:48.848Z,101216.99
2018-03-18T14:35:18.210Z,101217.73
2018-03-18T14:37:48.739Z,101217.30
2018-03-18T14:40:17.879Z,101231.38
2018-03-18T14:42:46.431Z,101221.81
2018-03-18T14:45:19.512Z,101218.48
2018-03-18T14:47:50.709Z,101228.43
2018-03-18T14:50:23.605Z,101230.48
2018-03-18T14:52:52.265Z,101236.72
2018-03-18T14:55:20.718Z,101226.93
2018-03-18T14:57:49.393Z,101227.88
2018-03-18T15:00:18.313Z,101227.76
2018-03-18T15:02:52.184Z,101232.36
2018-03-18T15:05:23.741Z,101235.36
2018-03-18T15:07:54.024Z,101230.97
2018-03-18T15:10:22.431Z,101235.03
2018-03-18T15:12:50.782Z,101236.47
2018-03-18T15:15:19.316Z,101236.27
2018-03-18T15:17:47.663Z,101231.84
2018-03-18T15:20:16.797Z,101236.14
2018-03-18T15:22:45.168Z,101232.90
2018-03-18T15:25:14.139Z,101229.16
2018-03-18T15:27:42.515Z,101234.00
2018-03-18T15:30:12.543Z,101236.89
2018-03-18T15:32:42.998Z,101229.02
2018-03-18T15:35:12.155Z,101223.79
2018-03-18T15:37:40.629Z,101223.64
2018-03-18T15:40:14.011Z,101236.47
2018-03-18T15:42:42.844Z,101230.67
2018-03-18T15:45:11.168Z,101239.79
2018-03-18T15:47:43.602Z,101224.86
2018-03-18T15:50:13.677Z,101231.97
2018-03-18T15:52:42.369Z,101230.42
2018-03-18T15:55:15.182Z,101236.74
2018-03-18T15:57:48.985Z,101239.98
2018-03-18T16:00:22.171Z,101247.93
2018-03-18T16:02:52.758Z,101240.42
2018-03-18T16:05:28.349Z,101243.28
2018-03-18T16:08:02.066Z,101249.23
2018-03-18T16:10:33.631Z,101253.02
2018-03-18T16:13:02.913Z,101247.11
2018-03-18T16:15:34.457Z,101248.69
2018-03-18T16:18:03.801Z,101236.01
2018-03-18T16:20:32.157Z,101249.77
2018-03-18T16:23:04.689Z,101251.58
2018-03-18T16:25:34.067Z,101252.05
2018-03-18T16:28:03.043Z,101250.36
2018-03-18T16:30:49.438Z,101255.31
2018-03-18T16:33:18.399Z,101251.54
2018-03-18T16:35:47.446Z,101255.62
2018-03-18T16:38:16.228Z,101254.23
2018-03-18T16:40:45.625Z,101248.53
2018-03-18T16:43:14.827Z,101251.66
2018-03-18T16:45:44.575Z,101256.64
2018-03-18T16:48:13.758Z,101259.29
2018-03-18T16:50:42.397Z,101258.36
2018-03-18T16:53:10.749Z,101261.38
2018-03-18T16:55:44.212Z,101261.84
2018-03-18T16:58:25.309Z,101271.41
2018-03-18T17:00:53.914Z,101266.18
2018-03-18T17:03:23.149Z,101267.09
2018-03-18T17:05:51.523Z,101274.97
2018-03-18T17:08:22.323Z,101270.83
2018-03-18T17:10:58.319Z,101275.39
2018-03-18T17:13:29.272Z,101277.67
2018-03-18T17:16:06.886Z,101279.54
2018-03-18T17:18:43.096Z,101286.55
2018-03-18T17:21:11.779Z,101279.53
2018-03-18T17:23:47.107Z,101293.39
2018-03-18T17:26:29.033Z,101298.91
2018-03-18T17:28:57.582Z,101310.58
2018-03-18T17:31:25.938Z,101309.31
2018-03-18T17:33:54.299Z,101305.93
2018-03-18T17:36:22.682Z,101313.97
2018-03-18T17:38:51.827Z,101324.39
2018-03-18T17:41:20.950Z,101318.23
2018-03-18T17:43:49.349Z,101331.80
2018-03-18T17:46:35.684Z,101340.77
2018-03-18T17:49:21.850Z,101329.91
2018-03-18T17:52:08.936Z,101338.23
2018-03-18T17:54:58.518Z,101350.31
2018-03-18T17:57:28.587Z,101352.48
2018-03-18T18:00:14.782Z,101365.82
2018-03-18T18:02:43.291Z,101370.07
2018-03-18T18:05:11.655Z,101377.99
2018-03-18T18:07:40.087Z,101384.30
2018-03-18T18:10:08.493Z,101383.78
2018-03-18T18:12:37.615Z,101387.05
2018-03-18T18:15:06.010Z,101399.14
2018-03-18T18:17:34.376Z,101403.42
2018-03-18T18:20:02.783Z,101400.64
2018-03-18T18:22:31.145Z,101411.56
2018-03-18T18:24:59.575Z,101415.61
2018-03-18T18:27:27.990Z,101409.38
2018-03-18T18:29:57.120Z,101424.41
2018-03-18T18:32:25.497Z,101432.58
2018-03-18T18:34:53.854Z,101429.59
2018-03-18T18:37:23.009Z,101433.54
2018-03-18T18:39:51.395Z,101437.48
2018-03-18T18:55:45.206Z,101459.42
2018-03-18T18:58:13.560Z,101463.19
2018-03-18T19:00:41.914Z,101472.38
2018-03-18T19:03:10.323Z,101463.28
2018-03-18T19:05:38.648Z,101466.17
2018-03-18T19:08:07.050Z,101471.70
2018-03-18T19:10:36.166Z,101472.08
2018-03-18T19:13:04.575Z,101483.41
2018-03-18T19:15:32.969Z,101473.94
2018-03-18T19:18:01.277Z,101484.98
2018-03-18T19:20:29.633Z,101489.21
2018-03-18T19:22:58.064Z,101498.26
2018-03-18T19:25:27.196Z,101493.85
2018-03-18T19:27:55.596Z,101495.58
2018-03-18T19:30:23.980Z,101513.39
2018-03-18T19:32:52.330Z,101502.98
2018-03-18T19:35:21.425Z,101498.41
2018-03-18T19:37:50.534Z,101500.23
2018-03-18T19:40:18.927Z,101498.04
2018-03-18T19:42:47.274Z,101504.76
2018-03-18T19:45:15.618Z,101499.92
2018-03-18T19:47:44.002Z,101510.09
2018-03-18T19:50:12.381Z,101508.81
2018-03-18T19:52:40.819Z,101507.99
2018-03-18T19:55:09.980Z,101516.30
2018-03-18T19:57:38.360Z,101517.27
2018-03-18T20:00:06.698Z,101516.05
2018-03-18T20:02:35.907Z,101519.88
2018-03-18T20:05:05.005Z,101515.82
2018-03-18T20:07:33.363Z,101518.93
2018-03-18T20:10:02.478Z,101521.54
2018-03-18T20:12:31.635Z,101524.70
2018-03-18T20:14:59.976Z,101519.75
2018-03-18T20:17:28.332Z,101523.33
2018-03-18T20:19:57.473Z,101528.09
2018-03-18T20:22:25.843Z,101532.39
2018-03-18T20:24:54.176Z,101535.27
2018-03-18T20:27:22.524Z,101530.39
2018-03-18T20:29:51.032Z,101529.20
2018-03-18T20:32:19.386Z,101527.05
2018-03-18T20:34:47.746Z,101534.40
2018-03-18T20:37:16.885Z,101544.25
2018-03-18T20:39:45.960Z,101539.92
2018-03-18T20:42:14.312Z,101538.66
2018-03-18T20:44:42.798Z,101539.27
2018-03-18T20:47:11.930Z,101542.67
2018-03-18T20:49:41.050Z,101540.16
2018-03-18T20:52:09.439Z,101545.83
2018-03-18T20:54:37.757Z,101545.80
2018-03-18T20:57:06.119Z,101547.88
2018-03-18T20:59:34.455Z,101551.98
2018-03-18T21:02:02.788Z,101555.14
2018-03-18T21:04:31.130Z,101552.36
2018-03-18T21:06:59.480Z,101551.28
2018-03-18T21:09:28.593Z,101555.99
2018-03-18T21:11:56.933Z,101554.85
2018-03-18T21:14:25.270Z,101562.88
2018-03-18T21:16:53.628Z,101561.30
2018-03-18T21:19:22.750Z,101562.67
2018-03-18T21:21:51.112Z,101560.35
2018-03-18T21:24:20.340Z,101563.36
2018-03-18T21:26:48.735Z,101559.16
2018-03-18T21:29:17.088Z,101555.65
2018-03-18T21:31:46.234Z,101563.93
2018-03-18T21:34:14.586Z,101562.58
2018-03-18T21:36:42.938Z,101558.45
2018-03-18T21:39:11.276Z,101565.91
2018-03-18T21:41:39.606Z,101558.75
2018-03-18T21:44:07.954Z,101558.51
2018-03-18T21:46:36.288Z,101558.02
2018-03-18T21:49:05.402Z,101559.54
2018-03-18T21:51:33.742Z,101553.50
2018-03-18T21:54:02.076Z,101559.83
2018-03-18T21:56:30.392Z,101563.46
2018-03-18T21:58:58.718Z,101555.98
2018-03-18T22:01:27.788Z,101565.36
2018-03-18T22:03:56.122Z,101556.65
2018-03-18T22:06:24.434Z,101558.34
2018-03-18T22:08:52.737Z,101565.17
2018-03-18T22:11:21.175Z,101565.70
2018-03-18T22:13:49.478Z,101563.02
2018-03-18T22:16:17.790Z,101564.58
2018-03-18T22:18:46.113Z,101564.75
2018-03-18T22:21:14.430Z,101564.22
2018-03-18T22:23:42.722Z,101567.16
2018-03-18T22:26:11.028Z,101558.61
2018-03-18T22:28:40.118Z,101554.08
2018-03-18T22:31:08.440Z,101553.77
2018-03-18T22:33:36.740Z,101567.22
2018-03-18T22:36:05.041Z,101561.41
2018-03-18T22:38:33.348Z,101562.14
2018-03-18T22:41:02.445Z,101563.31
2018-03-18T22:43:30.758Z,101552.92
2018-03-18T22:45:59.074Z,101556.09
2018-03-18T22:48:27.394Z,101549.89
2018-03-18T22:50:55.704Z,101557.62
2018-03-18T22:53:24.030Z,101563.41
2018-03-18T22:55:52.353Z,101550.77
2018-03-18T22:58:21.410Z,101552.72
2018-03-18T23:00:49.711Z,101546.63
2018-03-18T23:03:18.031Z,101557.21
2018-03-18T23:05:46.348Z,101552.44
2018-03-18T23:08:14.744Z,101558.05
2018-03-18T23:10:43.048Z,101550.62
2018-03-18T23:13:11.376Z,101551.34
2018-03-18T23:15:39.678Z,101556.44
2018-03-18T23:18:07.990Z,101560.13
2018-03-18T23:20:36.292Z,101560.41
2018-03-18T23:23:05.378Z,101562.97
2018-03-18T23:25:34.454Z,101552.50
2018-03-18T23:28:02.782Z,101564.56
2018-03-18T23:30:31.872Z,101567.36
2018-03-18T23:33:00.942Z,101557.17
2018-03-18T23:35:29.258Z,101556.64
2018-03-18T23:37:58.327Z,101556.91
2018-03-18T23:40:26.618Z,101558.48
2018-03-18T23:42:55.588Z,101553.54
2018-03-18T23:45:23.906Z,101560.04
2018-03-18T23:47:52.980Z,101544.94
2018-03-18T23:50:21.311Z,101555.69
2018-03-18T23:52:50.342Z,101554.29
2018-03-18T23:55:18.656Z,101555.49
2018-03-18T23:57:46.972Z,101563.17
